Ashaway, Rhode Island
Current Conditions -  °F | °C
As of 7:53 AM on Sunday 21 Dec 2014 (Local Time) from KWST Reporting Station
Overcast Overcast  
Wind Chill: 30°   Ceiling: 800
Heat Index: 36°   Visibility: 10mi
Dew Point: 33°   Wind: 8mph
Humidity: 89%   Direction: 30°NNE
Pressure: 30.27"   Gusts: NA
Location:  41.43°N, 71.79°W
Report Text: KWST 211253Z AUTO 03007KT 10SM BKN008 BKN023 OVC045 02/01 A3027 RMK AO2 SLP249 T00220006
Loading
Personal Weather Stations






























Interactive Weather Map New forecast layout! Learn more

10-Day Weather Forecast

Advertisements
Track Severe Weather on mobile